createdAt,value
2023-04-05T00:01:14.471Z,16.99
2023-04-05T00:03:41.624Z,16.99
2023-04-05T00:06:08.659Z,16.88
2023-04-05T00:08:35.388Z,16.89
2023-04-05T00:11:02.112Z,17.05
2023-04-05T00:13:28.900Z,17.03
2023-04-05T00:15:57.740Z,17.17
2023-04-05T00:18:25.644Z,17.02
2023-04-05T00:20:53.134Z,17.05
2023-04-05T00:23:20.304Z,17.00
2023-04-05T00:25:47.484Z,16.99
2023-04-05T00:28:14.160Z,16.95
2023-04-05T00:30:41.019Z,16.73
2023-04-05T00:33:09.171Z,16.80
2023-04-05T00:35:35.962Z,16.89
2023-04-05T00:38:02.617Z,16.84
2023-04-05T00:40:29.295Z,16.95
2023-04-05T00:42:56.022Z,16.81
2023-04-05T00:45:22.843Z,16.80
2023-04-05T00:47:49.966Z,16.86
2023-04-05T00:50:18.148Z,16.65
2023-04-05T00:52:45.960Z,16.65
2023-04-05T00:55:13.167Z,16.64
2023-04-05T00:57:40.164Z,16.62
2023-04-05T01:00:08.313Z,16.56
2023-04-05T01:02:41.008Z,16.65
2023-04-05T01:05:14.407Z,16.52
2023-04-05T01:07:49.028Z,16.68
2023-04-05T01:10:18.050Z,16.66
2023-04-05T01:12:45.557Z,16.65
2023-04-05T01:15:12.178Z,16.63
2023-04-05T01:17:38.938Z,16.60
2023-04-05T01:20:09.412Z,16.54
2023-04-05T01:23:12.456Z,16.42
2023-04-05T01:25:57.516Z,16.32
2023-04-05T01:28:44.633Z,16.47
2023-04-05T01:31:18.677Z,16.60
2023-04-05T01:33:56.137Z,16.43
2023-04-05T01:36:30.682Z,16.47
2023-04-05T01:38:58.887Z,16.33
2023-04-05T01:41:25.688Z,16.45
2023-04-05T01:43:52.298Z,16.34
2023-04-05T01:46:20.473Z,16.54
2023-04-05T01:48:47.109Z,16.59
2023-04-05T01:51:14.027Z,16.50
2023-04-05T01:53:40.857Z,16.52
2023-04-05T01:56:07.674Z,16.36
2023-04-05T01:58:34.343Z,16.44
2023-04-05T02:01:01.005Z,16.56
2023-04-05T02:03:29.044Z,16.50
2023-04-05T02:05:55.731Z,16.56
2023-04-05T02:08:23.469Z,16.45
2023-04-05T02:10:52.489Z,16.40
2023-04-05T02:13:19.130Z,16.63
2023-04-05T02:15:48.379Z,16.59
2023-04-05T02:18:15.035Z,16.57
2023-04-05T02:20:43.183Z,16.63
2023-04-05T02:23:09.912Z,16.48
2023-04-05T02:25:36.595Z,16.58
2023-04-05T02:28:03.278Z,16.57
2023-04-05T02:30:29.958Z,16.52
2023-04-05T02:32:56.573Z,16.46
2023-04-05T02:35:23.564Z,16.36
2023-04-05T02:37:51.913Z,16.49
2023-04-05T02:40:18.664Z,16.56
2023-04-05T02:42:45.416Z,16.49
2023-04-05T02:45:12.149Z,16.43
2023-04-05T02:47:38.800Z,16.42
2023-04-05T02:50:06.679Z,16.24
2023-04-05T02:52:33.627Z,16.27
2023-04-05T02:55:01.598Z,16.18
2023-04-05T02:57:28.344Z,16.15
2023-04-05T02:59:55.186Z,16.07
2023-04-05T03:02:21.965Z,16.01
2023-04-05T03:04:48.663Z,15.97
2023-04-05T03:07:15.373Z,16.04
2023-04-05T03:09:42.078Z,15.97
2023-04-05T03:12:10.154Z,16.13
2023-04-05T03:14:36.840Z,16.07
2023-04-05T03:17:03.629Z,16.12
2023-04-05T03:19:30.484Z,16.09
2023-04-05T03:21:57.066Z,16.12
2023-04-05T03:24:23.852Z,16.15
2023-04-05T03:26:50.894Z,16.08
2023-04-05T03:29:18.984Z,16.11
2023-04-05T03:31:45.780Z,16.14
2023-04-05T03:34:12.482Z,16.28
2023-04-05T03:36:39.179Z,16.22
2023-04-05T03:39:05.830Z,16.02
2023-04-05T03:41:32.478Z,16.15
2023-04-05T03:43:59.449Z,16.00
2023-04-05T03:46:27.521Z,16.00
2023-04-05T03:48:54.321Z,16.07
2023-04-05T03:51:21.061Z,15.98
2023-04-05T03:53:47.771Z,16.15
2023-04-05T03:56:14.516Z,16.22
2023-04-05T03:58:41.296Z,16.13
2023-04-05T04:01:08.002Z,16.30
2023-04-05T04:03:36.087Z,16.14
2023-04-05T04:06:02.897Z,16.25
2023-04-05T04:08:29.624Z,16.27
2023-04-05T04:10:56.547Z,16.27
2023-04-05T04:13:23.352Z,16.15
2023-04-05T04:15:50.173Z,16.32
2023-04-05T04:18:17.119Z,16.35
2023-04-05T04:20:45.120Z,16.21
2023-04-05T04:23:11.813Z,16.42
2023-04-05T04:25:39.053Z,16.31
2023-04-05T04:28:06.479Z,16.36
2023-04-05T04:30:33.544Z,16.37
2023-04-05T04:33:00.553Z,16.31
2023-04-05T04:35:28.448Z,16.43
2023-04-05T04:37:58.081Z,16.36
2023-04-05T04:40:27.712Z,16.35
2023-04-05T04:42:55.106Z,16.43
2023-04-05T04:45:21.885Z,16.45
2023-04-05T04:47:49.455Z,16.28
2023-04-05T04:50:16.640Z,16.48
2023-04-05T04:52:43.442Z,16.56
2023-04-05T04:55:12.191Z,16.47
2023-04-05T04:57:38.836Z,16.54
2023-04-05T05:00:07.086Z,16.60
2023-04-05T05:02:33.772Z,16.61
2023-04-05T05:05:01.558Z,16.58
2023-04-05T05:07:28.950Z,16.56
2023-04-05T05:09:55.551Z,16.57
2023-04-05T05:12:23.928Z,16.34
2023-04-05T05:14:50.669Z,16.27
2023-04-05T05:17:17.316Z,16.35
2023-04-05T05:19:46.603Z,16.48
2023-04-05T05:22:13.201Z,16.24
2023-04-05T05:24:39.863Z,16.26
2023-04-05T05:27:06.520Z,16.27
2023-04-05T05:29:34.551Z,16.14
2023-04-05T05:32:01.231Z,16.14
2023-04-05T05:34:27.924Z,16.23
2023-04-05T05:36:55.249Z,16.30
2023-04-05T05:39:22.105Z,16.33
2023-04-05T05:41:48.823Z,16.28
2023-04-05T05:44:15.573Z,16.41
2023-04-05T05:46:43.710Z,16.52
2023-04-05T05:49:10.316Z,16.57
2023-04-05T05:51:36.944Z,16.50
2023-04-05T05:54:03.690Z,16.56
2023-04-05T05:56:30.309Z,16.52
2023-04-05T05:58:57.101Z,16.19
2023-04-05T06:01:23.749Z,16.14
2023-04-05T06:03:52.047Z,16.25
2023-04-05T06:06:18.762Z,16.26
2023-04-05T06:08:45.491Z,16.24
2023-04-05T06:11:17.813Z,16.26
2023-04-05T06:13:44.431Z,16.23
2023-04-05T06:16:11.174Z,16.25
2023-04-05T06:18:37.836Z,16.26
2023-04-05T06:21:06.046Z,16.31
2023-04-05T06:23:32.883Z,16.37
2023-04-05T06:25:59.604Z,16.23
2023-04-05T06:28:26.353Z,16.22
2023-04-05T06:30:54.106Z,16.28
2023-04-05T06:33:20.853Z,16.39
2023-04-05T06:35:47.566Z,16.41
2023-04-05T06:38:15.629Z,16.39
2023-04-05T06:40:42.496Z,16.35
2023-04-05T06:43:09.487Z,16.31
2023-04-05T06:45:36.247Z,16.21
2023-04-05T06:48:03.346Z,16.17
2023-04-05T06:50:30.116Z,16.23
2023-04-05T06:52:56.883Z,16.37
2023-04-05T06:55:24.922Z,16.39
2023-04-05T06:57:51.644Z,16.34
2023-04-05T07:00:18.786Z,16.29
2023-04-05T07:02:45.466Z,16.34
2023-04-05T07:05:12.199Z,16.16
2023-04-05T07:07:40.604Z,16.30
2023-04-05T07:10:08.280Z,16.42
2023-04-05T07:12:40.511Z,16.27
2023-04-05T07:15:08.366Z,16.38
2023-04-05T07:17:35.091Z,16.29
2023-04-05T07:20:02.295Z,16.33
2023-04-05T07:22:28.890Z,16.31
2023-04-05T07:24:55.690Z,16.35
2023-04-05T07:27:23.382Z,16.43
2023-04-05T07:29:51.450Z,16.50
2023-04-05T07:32:18.174Z,16.51
2023-04-05T07:34:44.961Z,16.62
2023-04-05T07:37:11.565Z,16.86
2023-04-05T07:39:38.173Z,16.83
2023-04-05T07:42:05.558Z,16.73
2023-04-05T07:44:32.216Z,16.86
2023-04-05T07:47:00.313Z,16.94
2023-04-05T07:49:27.495Z,16.84
2023-04-05T07:51:55.217Z,16.78
2023-04-05T07:54:21.965Z,17.00
2023-04-05T07:56:48.654Z,16.81
2023-04-05T07:59:15.394Z,16.84
2023-04-05T08:01:42.107Z,16.93
2023-04-05T08:04:10.211Z,16.86
2023-04-05T08:06:37.049Z,17.04
2023-04-05T08:09:03.852Z,16.82
2023-04-05T08:11:30.562Z,16.69
2023-04-05T08:13:57.376Z,16.95
2023-04-05T08:16:24.028Z,17.13
2023-04-05T08:18:50.701Z,17.15
2023-04-05T08:21:18.799Z,17.05
2023-04-05T08:23:45.618Z,16.92
2023-04-05T08:26:12.368Z,17.11
2023-04-05T08:28:39.144Z,17.12
2023-04-05T08:31:05.967Z,17.14
2023-04-05T08:33:32.691Z,17.15
2023-04-05T08:36:04.553Z,16.84
2023-04-05T08:38:32.683Z,16.75
2023-04-05T08:41:08.417Z,17.02
2023-04-05T08:43:45.736Z,16.89
2023-04-05T08:46:15.038Z,16.66
2023-04-05T08:48:42.092Z,16.89
2023-04-05T08:51:09.086Z,16.97
2023-04-05T08:53:37.313Z,16.95
2023-04-05T08:56:04.390Z,17.19
2023-04-05T08:58:31.983Z,17.21
2023-04-05T09:00:59.379Z,17.21
2023-04-05T09:03:31.533Z,17.02
2023-04-05T09:05:59.228Z,17.19
2023-04-05T09:08:26.136Z,17.09
2023-04-05T09:10:54.246Z,17.12
2023-04-05T09:13:20.880Z,17.05
2023-04-05T09:15:48.070Z,17.22
2023-04-05T09:18:25.447Z,17.19
2023-04-05T09:20:56.991Z,17.30
2023-04-05T09:23:23.635Z,17.42
2023-04-05T09:25:50.233Z,17.50
2023-04-05T09:28:18.272Z,17.53
2023-04-05T09:30:46.683Z,17.40
2023-04-05T09:33:18.911Z,17.50
2023-04-05T09:35:49.698Z,17.50
2023-04-05T09:38:16.382Z,17.31
2023-04-05T09:40:44.693Z,17.53
2023-04-05T09:43:12.309Z,17.48
2023-04-05T09:45:41.431Z,17.58
2023-04-05T09:48:09.170Z,17.56
2023-04-05T09:50:36.157Z,17.21
2023-04-05T09:53:08.056Z,17.41
2023-04-05T09:55:35.034Z,17.27
2023-04-05T09:58:02.357Z,17.50
2023-04-05T10:00:30.123Z,17.51
2023-04-05T10:02:58.320Z,17.64
2023-04-05T10:05:27.218Z,17.88
2023-04-05T10:07:55.747Z,17.77
2023-04-05T10:10:23.588Z,17.54
2023-04-05T10:12:53.466Z,17.72
2023-04-05T10:15:20.360Z,17.55
2023-04-05T10:17:50.457Z,17.76
2023-04-05T10:20:20.365Z,18.01
2023-04-05T10:23:07.412Z,18.17
2023-04-05T10:25:46.810Z,18.23
2023-04-05T10:28:23.032Z,17.99
2023-04-05T10:30:52.165Z,18.13
2023-04-05T10:33:22.102Z,18.20
2023-04-05T10:36:00.728Z,18.48
2023-04-05T10:38:28.759Z,18.42
2023-04-05T10:41:02.211Z,18.37
2023-04-05T10:43:31.880Z,18.33
2023-04-05T10:46:00.209Z,18.58
2023-04-05T10:48:37.271Z,18.72
2023-04-05T10:51:06.112Z,18.55
2023-04-05T10:53:34.133Z,18.68
2023-04-05T10:56:02.040Z,18.53
2023-04-05T10:58:30.319Z,18.46
2023-04-05T11:00:58.450Z,18.58
2023-04-05T11:03:50.699Z,18.45
2023-04-05T11:06:31.863Z,18.46
2023-04-05T11:09:00.434Z,18.49
2023-04-05T11:11:27.235Z,18.34
2023-04-05T11:13:55.102Z,18.42
2023-04-05T11:16:38.189Z,18.13
2023-04-05T11:19:05.018Z,18.32
2023-04-05T11:21:34.925Z,18.21
2023-04-05T11:24:06.682Z,18.25
2023-04-05T11:26:52.854Z,18.20
2023-04-05T11:29:19.863Z,18.06
2023-04-05T11:31:59.779Z,18.17
2023-04-05T11:34:26.881Z,18.27
2023-04-05T11:36:54.971Z,18.31
2023-04-05T11:39:25.575Z,18.21
2023-04-05T11:41:58.145Z,18.20
2023-04-05T11:44:24.867Z,17.94
2023-04-05T11:46:51.732Z,18.10
2023-04-05T11:49:21.291Z,18.22
2023-04-05T11:51:50.268Z,18.29
2023-04-05T11:54:30.172Z,18.36
2023-04-05T11:56:56.950Z,18.51
2023-04-05T11:59:31.463Z,18.32
2023-04-05T12:01:59.495Z,18.53
2023-04-05T12:04:26.147Z,18.65
2023-04-05T12:07:17.587Z,18.47
2023-04-05T12:09:59.984Z,18.55
2023-04-05T12:12:26.746Z,18.62
2023-04-05T12:14:58.919Z,18.51
2023-04-05T12:17:42.439Z,18.77
2023-04-05T12:20:10.594Z,18.85
2023-04-05T12:22:37.878Z,18.86
2023-04-05T12:25:07.891Z,18.75
2023-04-05T12:27:34.914Z,18.82
2023-04-05T12:30:06.531Z,18.70
2023-04-05T12:32:36.652Z,18.65
2023-04-05T12:35:06.838Z,18.82
2023-04-05T12:37:34.740Z,18.67
2023-04-05T12:40:03.379Z,18.62
2023-04-05T12:42:33.650Z,18.41
2023-04-05T12:45:04.749Z,18.76
2023-04-05T12:47:33.531Z,18.40
2023-04-05T12:50:10.655Z,18.62
2023-04-05T12:52:37.272Z,18.33
2023-04-05T12:55:04.455Z,18.46
2023-04-05T12:57:32.948Z,18.18
2023-04-05T12:59:59.727Z,18.40
2023-04-05T13:02:27.109Z,18.43
2023-04-05T13:04:53.896Z,18.49
2023-04-05T13:07:20.607Z,18.42
2023-04-05T13:09:47.258Z,18.51
2023-04-05T13:12:13.962Z,18.31
2023-04-05T13:14:42.109Z,18.31
2023-04-05T13:17:08.783Z,18.28
2023-04-05T13:19:35.515Z,18.25
2023-04-05T13:22:02.288Z,18.24
2023-04-05T13:24:28.891Z,18.28
2023-04-05T13:26:55.487Z,18.28
2023-04-05T13:29:22.459Z,18.12
2023-04-05T13:31:50.596Z,18.02
2023-04-05T13:34:17.332Z,17.87
2023-04-05T13:36:44.037Z,18.09
2023-04-05T13:39:10.761Z,18.07
2023-04-05T13:41:37.510Z,18.09
2023-04-05T13:44:06.448Z,17.96
2023-04-05T13:46:34.059Z,17.95
2023-04-05T13:49:02.099Z,17.69
2023-04-05T13:51:28.881Z,17.81
2023-04-05T13:53:55.561Z,17.61
2023-04-05T13:56:22.401Z,17.66
2023-04-05T13:58:49.179Z,17.72
2023-04-05T14:01:15.895Z,17.80
2023-04-05T14:03:42.807Z,17.85
2023-04-05T14:06:11.031Z,18.05
2023-04-05T14:08:37.677Z,18.11
2023-04-05T14:11:04.438Z,18.02
2023-04-05T14:13:31.221Z,17.98
2023-04-05T14:15:57.962Z,17.90
2023-04-05T14:18:24.620Z,17.95
2023-04-05T14:20:51.517Z,17.94
2023-04-05T14:23:20.270Z,18.09
2023-04-05T14:25:47.051Z,17.91
2023-04-05T14:28:13.736Z,17.74
2023-04-05T14:30:40.788Z,17.86
2023-04-05T14:33:07.726Z,17.84
2023-04-05T14:35:34.600Z,17.92
2023-04-05T14:38:01.390Z,18.07
2023-04-05T14:40:29.663Z,18.14
2023-04-05T14:42:56.424Z,18.28
2023-04-05T14:45:23.144Z,18.49
2023-04-05T14:47:49.977Z,18.50
2023-04-05T14:50:16.853Z,18.42
2023-04-05T14:52:43.574Z,18.50
2023-04-05T14:55:10.383Z,18.45
2023-04-05T14:57:38.575Z,18.55
2023-04-05T15:00:06.648Z,18.55
2023-04-05T15:02:34.165Z,18.70
2023-04-05T15:05:01.082Z,18.61
2023-04-05T15:07:28.074Z,18.47
2023-04-05T15:09:54.775Z,18.43
2023-04-05T15:12:22.485Z,18.60
2023-04-05T15:14:50.600Z,18.57
2023-04-05T15:17:17.500Z,18.32
2023-04-05T15:19:44.254Z,18.41
2023-04-05T15:22:10.953Z,18.50
2023-04-05T15:24:37.886Z,18.38
2023-04-05T15:27:04.723Z,17.96
2023-04-05T15:29:32.330Z,18.20
2023-04-05T15:32:00.859Z,18.50
2023-04-05T15:34:28.260Z,18.31
2023-04-05T15:36:55.151Z,18.17
2023-04-05T15:39:22.411Z,18.11
2023-04-05T15:41:49.759Z,18.16
2023-04-05T15:44:16.879Z,18.21
2023-04-05T15:46:44.810Z,18.25
2023-04-05T15:49:14.806Z,18.10
2023-04-05T15:51:43.781Z,18.17
2023-04-05T15:54:10.646Z,18.16
2023-04-05T15:56:37.858Z,17.73
2023-04-05T15:59:04.926Z,18.12
2023-04-05T16:01:32.014Z,18.32
2023-04-05T16:03:58.879Z,18.16
2023-04-05T16:06:27.160Z,18.30
2023-04-05T16:08:53.938Z,18.22
2023-04-05T16:11:20.776Z,18.29
2023-04-05T16:13:47.553Z,18.28
2023-04-05T16:16:20.534Z,18.28
2023-04-05T16:18:54.714Z,18.19
2023-04-05T16:21:21.483Z,18.17
2023-04-05T16:23:49.795Z,18.26
2023-04-05T16:26:16.449Z,18.09
2023-04-05T16:28:43.134Z,18.08
2023-04-05T16:31:10.091Z,18.11
2023-04-05T16:33:36.794Z,18.13
2023-04-05T16:36:03.817Z,18.08
2023-04-05T16:38:30.553Z,17.89
2023-04-05T16:40:59.255Z,18.00
2023-04-05T16:43:25.918Z,18.09
2023-04-05T16:45:52.834Z,18.09
2023-04-05T16:48:19.677Z,18.00
2023-04-05T16:50:46.460Z,17.91
2023-04-05T16:53:13.369Z,17.92
2023-04-05T16:55:40.210Z,17.91
2023-04-05T16:58:08.348Z,17.68
2023-04-05T17:00:36.439Z,17.89
2023-04-05T17:03:03.491Z,18.04
2023-04-05T17:05:30.283Z,17.94
2023-04-05T17:07:57.276Z,17.88
2023-04-05T17:10:24.083Z,18.00
2023-04-05T17:12:50.884Z,17.98
2023-04-05T17:15:19.124Z,17.77
2023-04-05T17:17:45.933Z,17.78
2023-04-05T17:20:12.910Z,17.93
2023-04-05T17:22:39.960Z,17.96
2023-04-05T17:25:07.582Z,18.00
2023-04-05T17:27:34.573Z,17.92
2023-04-05T17:30:01.300Z,17.93
2023-04-05T17:32:29.522Z,17.72
2023-04-05T17:34:56.360Z,17.87
2023-04-05T17:37:23.152Z,17.83
2023-04-05T17:39:49.860Z,17.90
2023-04-05T17:42:16.643Z,17.68
2023-04-05T17:44:43.584Z,17.89
2023-04-05T17:47:10.442Z,18.05
2023-04-05T17:49:38.568Z,17.96
2023-04-05T17:52:05.762Z,17.95
2023-04-05T17:54:32.446Z,17.81
2023-04-05T17:56:59.158Z,17.85
2023-04-05T17:59:25.955Z,17.99
2023-04-05T18:01:52.789Z,17.97
2023-04-05T18:04:19.825Z,17.93
2023-04-05T18:06:48.099Z,17.87
2023-04-05T18:09:14.867Z,18.07
2023-04-05T18:11:41.539Z,18.00
2023-04-05T18:14:08.543Z,17.81
2023-04-05T18:16:35.284Z,17.98
2023-04-05T18:19:02.039Z,17.90
2023-04-05T18:21:28.727Z,17.95
2023-04-05T18:23:56.892Z,17.80
2023-04-05T18:26:23.648Z,17.84
2023-04-05T18:28:50.363Z,17.79
2023-04-05T18:31:17.090Z,17.80
2023-04-05T18:33:43.781Z,17.90
2023-04-05T18:36:11.760Z,17.93
2023-04-05T18:38:38.563Z,17.99
2023-04-05T18:41:06.709Z,18.08
2023-04-05T18:43:33.494Z,17.91
2023-04-05T18:46:00.229Z,17.91
2023-04-05T18:48:26.942Z,17.97
2023-04-05T18:50:54.118Z,18.02
2023-04-05T18:53:21.129Z,18.05
2023-04-05T18:55:50.446Z,17.89
2023-04-05T18:58:18.560Z,17.76
2023-04-05T19:00:45.265Z,17.76
2023-04-05T19:03:12.101Z,17.81
2023-04-05T19:05:38.962Z,17.94
2023-04-05T19:08:05.840Z,17.96
2023-04-05T19:10:32.535Z,17.87
2023-04-05T19:12:59.332Z,17.75
2023-04-05T19:15:27.538Z,17.78
2023-04-05T19:17:54.332Z,17.85
2023-04-05T19:20:21.164Z,17.67
2023-04-05T19:22:47.822Z,17.73
2023-04-05T19:25:14.679Z,17.86
2023-04-05T19:27:41.407Z,17.62
2023-04-05T19:30:09.431Z,17.63
2023-04-05T19:32:37.678Z,17.68
2023-04-05T19:35:06.733Z,17.65
2023-04-05T19:37:34.144Z,17.63
2023-04-05T19:40:01.534Z,17.64
2023-04-05T19:42:28.272Z,17.49
2023-04-05T19:44:55.301Z,17.58
2023-04-05T19:47:23.551Z,17.64
2023-04-05T19:49:53.253Z,17.65
2023-04-05T19:52:39.432Z,17.63
2023-04-05T19:55:26.966Z,17.63
2023-04-05T19:57:54.458Z,17.60
2023-04-05T20:00:36.735Z,17.52
2023-04-05T20:03:18.414Z,17.49
2023-04-05T20:06:13.879Z,17.59
2023-04-05T20:08:42.457Z,17.65
2023-04-05T20:11:13.100Z,17.74
2023-04-05T20:13:43.371Z,17.61
2023-04-05T20:16:12.142Z,17.58
2023-04-05T20:18:38.991Z,17.59
2023-04-05T20:21:06.173Z,17.71
2023-04-05T20:23:38.525Z,17.51
2023-04-05T20:26:06.771Z,17.63
2023-04-05T20:28:37.472Z,17.70
2023-04-05T20:31:07.076Z,17.71
2023-04-05T20:33:39.972Z,17.58
2023-04-05T20:36:06.872Z,17.63
2023-04-05T20:38:35.015Z,17.71
2023-04-05T20:41:01.679Z,17.50
2023-04-05T20:43:29.902Z,17.52
2023-04-05T20:45:58.973Z,17.66
2023-04-05T20:48:25.769Z,17.37
2023-04-05T20:50:52.530Z,17.40
2023-04-05T20:53:19.296Z,17.53
2023-04-05T20:55:47.501Z,17.61
2023-04-05T20:58:14.371Z,17.53
2023-04-05T21:00:41.111Z,17.51
2023-04-05T21:03:08.995Z,17.46
2023-04-05T21:05:35.866Z,17.42
2023-04-05T21:08:02.635Z,17.45
2023-04-05T21:10:29.427Z,17.57
2023-04-05T21:12:57.581Z,17.52
2023-04-05T21:15:24.731Z,17.57
2023-04-05T21:17:51.415Z,17.55
2023-04-05T21:20:18.060Z,17.59
2023-04-05T21:22:44.860Z,17.64
2023-04-05T21:25:11.609Z,17.70
2023-04-05T21:27:38.490Z,17.71
2023-04-05T21:30:08.653Z,17.78
2023-04-05T21:32:35.477Z,17.68
2023-04-05T21:35:02.175Z,17.75
2023-04-05T21:37:28.933Z,17.83
2023-04-05T21:39:55.707Z,17.77
2023-04-05T21:42:22.800Z,17.79
2023-04-05T21:44:49.639Z,17.76
2023-04-05T21:47:17.761Z,17.82
2023-04-05T21:49:45.524Z,17.84
2023-04-05T21:52:12.224Z,17.75
2023-04-05T21:54:38.939Z,17.75
2023-04-05T21:57:06.345Z,17.60
2023-04-05T21:59:33.165Z,17.60
2023-04-05T22:02:00.618Z,17.59
2023-04-05T22:04:28.740Z,17.55
2023-04-05T22:06:55.654Z,17.60
2023-04-05T22:09:22.420Z,17.65
2023-04-05T22:11:49.961Z,17.74
2023-04-05T22:14:16.774Z,17.78
2023-04-05T22:16:43.547Z,17.75
2023-04-05T22:19:10.633Z,17.77
2023-04-05T22:21:38.862Z,17.69
2023-04-05T22:24:06.017Z,17.77
2023-04-05T22:26:32.885Z,17.80
2023-04-05T22:28:59.687Z,17.85
2023-04-05T22:31:26.463Z,17.77
2023-04-05T22:33:53.409Z,17.69
2023-04-05T22:36:20.415Z,17.83
2023-04-05T22:38:48.495Z,17.72
2023-04-05T22:41:15.240Z,17.83
2023-04-05T22:43:41.937Z,17.86
2023-04-05T22:46:08.835Z,17.76
2023-04-05T22:48:35.593Z,17.71
2023-04-05T22:51:02.403Z,17.80
2023-04-05T22:53:29.157Z,17.86
2023-04-05T22:55:57.646Z,17.96
2023-04-05T22:58:24.442Z,17.87
2023-04-05T23:00:51.422Z,17.82
2023-04-05T23:03:18.126Z,17.88
2023-04-05T23:05:45.934Z,17.86
2023-04-05T23:08:12.707Z,17.92
2023-04-05T23:10:39.374Z,17.92
2023-04-05T23:13:07.713Z,17.90
2023-04-05T23:15:34.520Z,17.83
2023-04-05T23:18:01.401Z,17.85
2023-04-05T23:20:28.154Z,17.88
2023-04-05T23:22:54.881Z,17.88
2023-04-05T23:25:21.835Z,17.98
2023-04-05T23:27:48.605Z,17.97
2023-04-05T23:30:16.773Z,17.90
2023-04-05T23:32:43.570Z,17.97
2023-04-05T23:35:10.378Z,17.83
2023-04-05T23:37:37.090Z,17.89
2023-04-05T23:40:04.588Z,17.93
2023-04-05T23:42:31.297Z,17.95
2023-04-05T23:44:58.015Z,17.92
2023-04-05T23:47:26.274Z,17.83
2023-04-05T23:49:53.032Z,17.84
2023-04-05T23:52:19.738Z,17.78
2023-04-05T23:54:46.442Z,17.90
2023-04-05T23:57:13.320Z,17.82
2023-04-05T23:59:40.132Z,17.95
